sensor_id;sensor_type;location;lat;lon;timestamp;pressure;altitude;pressure_sealevel;temperature;humidity
42361;BME280;54542;51.562;0.004;2022-08-24T00:02:26;101508.59;;;19.43;60.63
42361;BME280;54542;51.562;0.004;2022-08-24T00:04:54;101512.49;;;19.11;61.43
42361;BME280;54542;51.562;0.004;2022-08-24T00:07:21;101514.23;;;19.75;62.25
42361;BME280;54542;51.562;0.004;2022-08-24T00:09:49;101517.49;;;19.09;63.89
42361;BME280;54542;51.562;0.004;2022-08-24T00:12:16;101520.77;;;19.21;63.76
42361;BME280;54542;51.562;0.004;2022-08-24T00:14:44;101525.41;;;19.28;63.33
42361;BME280;54542;51.562;0.004;2022-08-24T00:17:12;101524.41;;;19.91;62.17
42361;BME280;54542;51.562;0.004;2022-08-24T00:19:39;101520.86;;;19.33;62.90
42361;BME280;54542;51.562;0.004;2022-08-24T00:22:07;101520.19;;;19.45;61.17
42361;BME280;54542;51.562;0.004;2022-08-24T00:24:35;101520.43;;;19.40;61.50
42361;BME280;54542;51.562;0.004;2022-08-24T00:27:02;101519.24;;;19.57;61.14
42361;BME280;54542;51.562;0.004;2022-08-24T00:29:30;101518.59;;;18.76;62.59
42361;BME280;54542;51.562;0.004;2022-08-24T00:31:57;101521.82;;;19.30;62.36
42361;BME280;54542;51.562;0.004;2022-08-24T00:34:25;101524.06;;;18.87;63.91
42361;BME280;54542;51.562;0.004;2022-08-24T00:36:53;101525.20;;;18.44;63.53
42361;BME280;54542;51.562;0.004;2022-08-24T00:39:20;101524.33;;;19.57;62.00
42361;BME280;54542;51.562;0.004;2022-08-24T00:41:49;101522.48;;;19.59;61.04
42361;BME280;54542;51.562;0.004;2022-08-24T00:44:18;101519.82;;;19.57;60.94
42361;BME280;54542;51.562;0.004;2022-08-24T00:46:49;101526.23;;;20.05;59.81
42361;BME280;54542;51.562;0.004;2022-08-24T00:49:23;101522.30;;;20.13;59.50
42361;BME280;54542;51.562;0.004;2022-08-24T00:51:55;101518.11;;;19.80;61.83
42361;BME280;54542;51.562;0.004;2022-08-24T00:54:26;101520.56;;;19.86;59.88
42361;BME280;54542;51.562;0.004;2022-08-24T00:56:57;101514.51;;;19.91;60.11
42361;BME280;54542;51.562;0.004;2022-08-24T00:59:29;101512.79;;;19.63;60.58
42361;BME280;54542;51.562;0.004;2022-08-24T01:01:59;101511.88;;;19.79;60.29
42361;BME280;54542;51.562;0.004;2022-08-24T01:04:31;101509.31;;;19.35;61.10
42361;BME280;54542;51.562;0.004;2022-08-24T01:07:01;101507.17;;;18.87;63.49
42361;BME280;54542;51.562;0.004;2022-08-24T01:09:28;101509.10;;;19.31;62.10
42361;BME280;54542;51.562;0.004;2022-08-24T01:11:56;101513.11;;;19.01;63.06
42361;BME280;54542;51.562;0.004;2022-08-24T01:14:23;101510.86;;;19.24;62.71
42361;BME280;54542;51.562;0.004;2022-08-24T01:16:51;101506.93;;;18.61;64.87
42361;BME280;54542;51.562;0.004;2022-08-24T01:19:28;101508.51;;;19.44;62.98
42361;BME280;54542;51.562;0.004;2022-08-24T01:22:10;101506.33;;;19.04;64.21
42361;BME280;54542;51.562;0.004;2022-08-24T01:24:41;101506.79;;;18.85;64.47
42361;BME280;54542;51.562;0.004;2022-08-24T01:27:09;101508.09;;;19.18;63.98
42361;BME280;54542;51.562;0.004;2022-08-24T01:29:40;101507.00;;;18.87;62.70
42361;BME280;54542;51.562;0.004;2022-08-24T01:32:09;101510.78;;;17.21;66.84
42361;BME280;54542;51.562;0.004;2022-08-24T01:34:37;101515.15;;;18.11;65.28
42361;BME280;54542;51.562;0.004;2022-08-24T01:37:07;101513.71;;;17.77;65.76
42361;BME280;54542;51.562;0.004;2022-08-24T01:39:39;101510.71;;;18.70;63.91
42361;BME280;54542;51.562;0.004;2022-08-24T01:42:09;101508.64;;;18.81;62.97
42361;BME280;54542;51.562;0.004;2022-08-24T01:44:40;101507.75;;;19.30;62.51
42361;BME280;54542;51.562;0.004;2022-08-24T01:47:09;101510.20;;;19.23;61.90
42361;BME280;54542;51.562;0.004;2022-08-24T01:49:39;101508.52;;;19.55;61.78
42361;BME280;54542;51.562;0.004;2022-08-24T01:52:09;101508.80;;;19.26;61.77
42361;BME280;54542;51.562;0.004;2022-08-24T01:54:38;101506.49;;;19.19;61.90
42361;BME280;54542;51.562;0.004;2022-08-24T01:57:06;101505.89;;;19.09;62.49
42361;BME280;54542;51.562;0.004;2022-08-24T01:59:34;101507.16;;;18.68;62.82
42361;BME280;54542;51.562;0.004;2022-08-24T02:02:04;101509.26;;;18.56;63.67
42361;BME280;54542;51.562;0.004;2022-08-24T02:04:32;101509.48;;;18.62;64.46
42361;BME280;54542;51.562;0.004;2022-08-24T02:07:00;101515.97;;;18.84;64.04
42361;BME280;54542;51.562;0.004;2022-08-24T02:09:28;101517.78;;;18.43;65.19
42361;BME280;54542;51.562;0.004;2022-08-24T02:11:55;101520.54;;;18.84;62.91
42361;BME280;54542;51.562;0.004;2022-08-24T02:14:24;101520.71;;;19.22;64.20
42361;BME280;54542;51.562;0.004;2022-08-24T02:16:51;101525.11;;;18.49;65.22
42361;BME280;54542;51.562;0.004;2022-08-24T02:19:19;101528.56;;;18.65;64.56
42361;BME280;54542;51.562;0.004;2022-08-24T02:21:47;101531.61;;;18.70;64.05
42361;BME280;54542;51.562;0.004;2022-08-24T02:24:14;101530.82;;;19.10;62.48
42361;BME280;54542;51.562;0.004;2022-08-24T02:26:42;101529.89;;;19.22;63.05
42361;BME280;54542;51.562;0.004;2022-08-24T02:29:10;101532.43;;;18.80;62.96
42361;BME280;54542;51.562;0.004;2022-08-24T02:31:37;101533.96;;;18.51;62.55
42361;BME280;54542;51.562;0.004;2022-08-24T02:34:05;101529.87;;;18.77;63.94
42361;BME280;54542;51.562;0.004;2022-08-24T02:36:33;101535.28;;;19.13;62.98
42361;BME280;54542;51.562;0.004;2022-08-24T02:39:01;101537.27;;;19.38;62.73
42361;BME280;54542;51.562;0.004;2022-08-24T02:41:28;101542.67;;;19.20;62.11
42361;BME280;54542;51.562;0.004;2022-08-24T02:43:56;101542.51;;;19.37;63.39
42361;BME280;54542;51.562;0.004;2022-08-24T02:46:26;101542.27;;;18.66;64.75
42361;BME280;54542;51.562;0.004;2022-08-24T02:48:54;101540.87;;;18.32;66.23
42361;BME280;54542;51.562;0.004;2022-08-24T02:51:26;101543.45;;;18.46;64.65
42361;BME280;54542;51.562;0.004;2022-08-24T02:53:53;101544.69;;;18.67;64.22
42361;BME280;54542;51.562;0.004;2022-08-24T02:56:21;101540.81;;;17.99;65.48
42361;BME280;54542;51.562;0.004;2022-08-24T02:58:49;101533.80;;;18.79;65.34
42361;BME280;54542;51.562;0.004;2022-08-24T03:01:17;101528.63;;;18.59;63.79
42361;BME280;54542;51.562;0.004;2022-08-24T03:03:45;101535.25;;;18.36;64.87
42361;BME280;54542;51.562;0.004;2022-08-24T03:06:13;101530.23;;;18.71;63.46
42361;BME280;54542;51.562;0.004;2022-08-24T03:08:40;101530.24;;;18.82;62.75
42361;BME280;54542;51.562;0.004;2022-08-24T03:11:08;101524.58;;;18.50;65.05
42361;BME280;54542;51.562;0.004;2022-08-24T03:13:35;101523.14;;;18.53;64.02
42361;BME280;54542;51.562;0.004;2022-08-24T03:16:04;101527.44;;;18.91;63.34
42361;BME280;54542;51.562;0.004;2022-08-24T03:18:32;101527.20;;;18.32;64.42
42361;BME280;54542;51.562;0.004;2022-08-24T03:21:01;101531.98;;;18.40;63.63
42361;BME280;54542;51.562;0.004;2022-08-24T03:23:29;101530.55;;;18.73;63.01
42361;BME280;54542;51.562;0.004;2022-08-24T03:25:56;101536.41;;;17.49;66.16
42361;BME280;54542;51.562;0.004;2022-08-24T03:28:24;101532.89;;;17.91;65.67
42361;BME280;54542;51.562;0.004;2022-08-24T03:30:51;101537.53;;;18.15;65.21
42361;BME280;54542;51.562;0.004;2022-08-24T03:33:19;101538.07;;;17.42;68.90
42361;BME280;54542;51.562;0.004;2022-08-24T03:35:47;101537.48;;;18.03;67.67
42361;BME280;54542;51.562;0.004;2022-08-24T03:38:15;101541.87;;;17.77;67.84
42361;BME280;54542;51.562;0.004;2022-08-24T03:40:43;101542.68;;;18.32;66.83
42361;BME280;54542;51.562;0.004;2022-08-24T03:43:10;101540.42;;;18.20;64.84
42361;BME280;54542;51.562;0.004;2022-08-24T03:45:38;101540.58;;;18.42;64.52
42361;BME280;54542;51.562;0.004;2022-08-24T03:48:06;101537.63;;;18.34;64.78
42361;BME280;54542;51.562;0.004;2022-08-24T03:50:33;101536.36;;;18.55;66.31
42361;BME280;54542;51.562;0.004;2022-08-24T03:53:01;101538.90;;;18.44;65.67
42361;BME280;54542;51.562;0.004;2022-08-24T03:55:29;101539.96;;;18.21;66.53
42361;BME280;54542;51.562;0.004;2022-08-24T03:57:56;101542.28;;;18.24;67.55
42361;BME280;54542;51.562;0.004;2022-08-24T04:00:24;101539.46;;;18.44;66.07
42361;BME280;54542;51.562;0.004;2022-08-24T04:02:52;101538.74;;;17.69;66.95
42361;BME280;54542;51.562;0.004;2022-08-24T04:05:19;101536.35;;;17.85;66.26
42361;BME280;54542;51.562;0.004;2022-08-24T04:07:47;101536.58;;;18.48;64.27
42361;BME280;54542;51.562;0.004;2022-08-24T04:10:15;101534.40;;;18.80;63.48
42361;BME280;54542;51.562;0.004;2022-08-24T04:12:42;101535.93;;;18.50;64.40
42361;BME280;54542;51.562;0.004;2022-08-24T04:15:11;101533.42;;;18.91;65.08
42361;BME280;54542;51.562;0.004;2022-08-24T04:17:38;101534.14;;;18.05;65.38
42361;BME280;54542;51.562;0.004;2022-08-24T04:20:06;101536.32;;;18.54;64.84
42361;BME280;54542;51.562;0.004;2022-08-24T04:22:34;101536.81;;;18.47;64.49
42361;BME280;54542;51.562;0.004;2022-08-24T04:25:02;101537.07;;;17.86;65.67
42361;BME280;54542;51.562;0.004;2022-08-24T04:27:30;101538.63;;;17.59;66.25
42361;BME280;54542;51.562;0.004;2022-08-24T04:29:57;101536.78;;;18.19;65.52
42361;BME280;54542;51.562;0.004;2022-08-24T04:32:24;101536.36;;;18.55;63.86
42361;BME280;54542;51.562;0.004;2022-08-24T04:34:52;101534.31;;;18.45;63.19
42361;BME280;54542;51.562;0.004;2022-08-24T04:37:19;101536.39;;;18.37;64.19
42361;BME280;54542;51.562;0.004;2022-08-24T04:39:47;101535.08;;;18.36;64.89
42361;BME280;54542;51.562;0.004;2022-08-24T04:42:15;101533.88;;;18.67;64.63
42361;BME280;54542;51.562;0.004;2022-08-24T04:44:42;101537.47;;;17.08;66.99
42361;BME280;54542;51.562;0.004;2022-08-24T04:47:10;101541.68;;;18.50;66.37
42361;BME280;54542;51.562;0.004;2022-08-24T04:49:38;101546.87;;;18.21;67.60
42361;BME280;54542;51.562;0.004;2022-08-24T04:52:06;101548.27;;;16.85;69.94
42361;BME280;54542;51.562;0.004;2022-08-24T04:54:33;101547.92;;;17.96;68.32
42361;BME280;54542;51.562;0.004;2022-08-24T04:57:01;101553.90;;;17.86;67.39
42361;BME280;54542;51.562;0.004;2022-08-24T04:59:28;101552.44;;;17.75;68.43
42361;BME280;54542;51.562;0.004;2022-08-24T05:01:56;101555.12;;;18.34;68.07
42361;BME280;54542;51.562;0.004;2022-08-24T05:04:24;101556.53;;;18.26;67.76
42361;BME280;54542;51.562;0.004;2022-08-24T05:06:51;101556.67;;;18.01;68.48
42361;BME280;54542;51.562;0.004;2022-08-24T05:09:19;101557.06;;;17.87;68.08
42361;BME280;54542;51.562;0.004;2022-08-24T05:11:47;101562.55;;;17.64;68.85
42361;BME280;54542;51.562;0.004;2022-08-24T05:14:14;101566.18;;;18.26;68.65
42361;BME280;54542;51.562;0.004;2022-08-24T05:16:42;101569.74;;;16.90;69.20
42361;BME280;54542;51.562;0.004;2022-08-24T05:19:10;101569.46;;;17.73;69.67
42361;BME280;54542;51.562;0.004;2022-08-24T05:21:37;101571.76;;;18.26;67.06
42361;BME280;54542;51.562;0.004;2022-08-24T05:24:05;101574.60;;;18.08;68.58
42361;BME280;54542;51.562;0.004;2022-08-24T05:26:33;101576.63;;;17.46;68.06
42361;BME280;54542;51.562;0.004;2022-08-24T05:29:01;101579.90;;;17.66;67.01
42361;BME280;54542;51.562;0.004;2022-08-24T05:31:31;101577.86;;;17.94;69.13
42361;BME280;54542;51.562;0.004;2022-08-24T05:33:59;101580.58;;;17.83;68.89
42361;BME280;54542;51.562;0.004;2022-08-24T05:36:29;101582.13;;;17.99;66.91
42361;BME280;54542;51.562;0.004;2022-08-24T05:39:00;101585.09;;;18.56;65.41
42361;BME280;54542;51.562;0.004;2022-08-24T05:41:28;101585.72;;;18.47;65.06
42361;BME280;54542;51.562;0.004;2022-08-24T05:43:55;101583.33;;;17.68;67.01
42361;BME280;54542;51.562;0.004;2022-08-24T05:46:23;101582.76;;;17.39;70.34
42361;BME280;54542;51.562;0.004;2022-08-24T05:48:50;101587.79;;;18.37;68.06
42361;BME280;54542;51.562;0.004;2022-08-24T05:51:19;101584.36;;;18.31;66.02
42361;BME280;54542;51.562;0.004;2022-08-24T05:53:47;101590.09;;;17.92;66.64
42361;BME280;54542;51.562;0.004;2022-08-24T05:56:16;101587.34;;;17.97;68.93
42361;BME280;54542;51.562;0.004;2022-08-24T05:58:45;101589.44;;;18.13;69.11
42361;BME280;54542;51.562;0.004;2022-08-24T06:01:14;101589.43;;;18.21;66.39
42361;BME280;54542;51.562;0.004;2022-08-24T06:03:42;101595.79;;;18.34;67.20
42361;BME280;54542;51.562;0.004;2022-08-24T06:06:10;101592.03;;;17.69;70.29
42361;BME280;54542;51.562;0.004;2022-08-24T06:08:40;101596.24;;;17.53;68.94
42361;BME280;54542;51.562;0.004;2022-08-24T06:11:08;101599.21;;;17.86;69.96
42361;BME280;54542;51.562;0.004;2022-08-24T06:13:36;101597.76;;;17.70;67.30
42361;BME280;54542;51.562;0.004;2022-08-24T06:16:05;101606.59;;;17.12;68.97
42361;BME280;54542;51.562;0.004;2022-08-24T06:18:34;101610.56;;;17.43;69.22
42361;BME280;54542;51.562;0.004;2022-08-24T06:21:05;101613.80;;;17.77;69.92
42361;BME280;54542;51.562;0.004;2022-08-24T06:23:33;101615.34;;;17.58;67.82
42361;BME280;54542;51.562;0.004;2022-08-24T06:26:02;101619.44;;;17.66;69.13
42361;BME280;54542;51.562;0.004;2022-08-24T06:28:30;101619.26;;;17.18;69.38
42361;BME280;54542;51.562;0.004;2022-08-24T06:31:04;101617.91;;;17.88;68.27
42361;BME280;54542;51.562;0.004;2022-08-24T06:33:34;101624.15;;;17.78;68.03
42361;BME280;54542;51.562;0.004;2022-08-24T06:36:03;101628.14;;;18.35;66.91
42361;BME280;54542;51.562;0.004;2022-08-24T06:38:31;101626.45;;;18.66;65.97
42361;BME280;54542;51.562;0.004;2022-08-24T06:40:59;101623.30;;;19.32;64.16
42361;BME280;54542;51.562;0.004;2022-08-24T06:43:29;101625.40;;;19.14;63.39
42361;BME280;54542;51.562;0.004;2022-08-24T06:45:58;101623.33;;;19.30;63.09
42361;BME280;54542;51.562;0.004;2022-08-24T06:48:27;101627.24;;;18.99;64.02
42361;BME280;54542;51.562;0.004;2022-08-24T06:50:57;101624.73;;;18.76;65.07
42361;BME280;54542;51.562;0.004;2022-08-24T06:53:27;101627.97;;;18.31;65.94
42361;BME280;54542;51.562;0.004;2022-08-24T06:55:57;101626.13;;;18.53;65.80
42361;BME280;54542;51.562;0.004;2022-08-24T06:58:26;101629.23;;;18.70;64.84
42361;BME280;54542;51.562;0.004;2022-08-24T07:00:55;101632.03;;;18.57;65.72
42361;BME280;54542;51.562;0.004;2022-08-24T07:03:24;101632.95;;;18.16;66.93
42361;BME280;54542;51.562;0.004;2022-08-24T07:05:53;101640.86;;;17.85;69.00
42361;BME280;54542;51.562;0.004;2022-08-24T07:08:21;101642.19;;;18.47;67.84
42361;BME280;54542;51.562;0.004;2022-08-24T07:10:50;101638.80;;;18.25;68.09
42361;BME280;54542;51.562;0.004;2022-08-24T07:13:18;101636.87;;;18.51;66.79
42361;BME280;54542;51.562;0.004;2022-08-24T07:15:49;101639.75;;;19.53;64.73
42361;BME280;54542;51.562;0.004;2022-08-24T07:18:18;101638.61;;;18.67;65.82
42361;BME280;54542;51.562;0.004;2022-08-24T07:20:47;101637.03;;;18.57;66.60
42361;BME280;54542;51.562;0.004;2022-08-24T07:23:15;101639.71;;;19.13;65.37
42361;BME280;54542;51.562;0.004;2022-08-24T07:25:43;101640.64;;;19.01;65.04
42361;BME280;54542;51.562;0.004;2022-08-24T07:28:11;101641.31;;;18.48;65.79
42361;BME280;54542;51.562;0.004;2022-08-24T07:30:39;101641.93;;;19.44;64.21
42361;BME280;54542;51.562;0.004;2022-08-24T07:33:07;101649.97;;;18.39;66.23
42361;BME280;54542;51.562;0.004;2022-08-24T07:35:34;101653.33;;;18.61;65.15
42361;BME280;54542;51.562;0.004;2022-08-24T07:38:03;101653.85;;;18.77;65.31
42361;BME280;54542;51.562;0.004;2022-08-24T07:40:31;101653.69;;;18.90;64.66
42361;BME280;54542;51.562;0.004;2022-08-24T07:42:58;101661.21;;;19.14;63.80
42361;BME280;54542;51.562;0.004;2022-08-24T07:45:26;101658.54;;;18.98;64.08
42361;BME280;54542;51.562;0.004;2022-08-24T07:47:56;101653.80;;;18.90;64.86
42361;BME280;54542;51.562;0.004;2022-08-24T07:50:23;101660.09;;;19.14;63.72
42361;BME280;54542;51.562;0.004;2022-08-24T07:52:51;101655.11;;;19.91;62.60
42361;BME280;54542;51.562;0.004;2022-08-24T07:55:20;101656.81;;;19.94;61.31
42361;BME280;54542;51.562;0.004;2022-08-24T07:57:48;101657.09;;;19.74;61.27
42361;BME280;54542;51.562;0.004;2022-08-24T08:00:17;101659.61;;;18.98;62.70
42361;BME280;54542;51.562;0.004;2022-08-24T08:02:45;101662.38;;;19.04;62.78
42361;BME280;54542;51.562;0.004;2022-08-24T08:05:17;101664.06;;;19.37;61.77
42361;BME280;54542;51.562;0.004;2022-08-24T08:07:45;101666.10;;;19.49;61.03
42361;BME280;54542;51.562;0.004;2022-08-24T08:10:14;101664.60;;;19.91;60.42
42361;BME280;54542;51.562;0.004;2022-08-24T08:12:43;101667.08;;;19.71;59.37
42361;BME280;54542;51.562;0.004;2022-08-24T08:15:12;101663.69;;;20.02;60.29
42361;BME280;54542;51.562;0.004;2022-08-24T08:17:40;101665.34;;;18.93;60.95
42361;BME280;54542;51.562;0.004;2022-08-24T08:20:09;101665.35;;;19.58;60.51
42361;BME280;54542;51.562;0.004;2022-08-24T08:22:37;101667.06;;;19.83;59.96
42361;BME280;54542;51.562;0.004;2022-08-24T08:25:06;101668.34;;;20.33;59.22
42361;BME280;54542;51.562;0.004;2022-08-24T08:27:34;101670.66;;;20.24;58.86
42361;BME280;54542;51.562;0.004;2022-08-24T08:30:02;101664.51;;;20.11;58.83
42361;BME280;54542;51.562;0.004;2022-08-24T08:32:30;101665.87;;;19.95;59.71
42361;BME280;54542;51.562;0.004;2022-08-24T08:34:58;101665.28;;;19.84;57.57
42361;BME280;54542;51.562;0.004;2022-08-24T08:37:26;101666.33;;;20.31;57.95
42361;BME280;54542;51.562;0.004;2022-08-24T08:39:53;101669.01;;;19.88;57.39
42361;BME280;54542;51.562;0.004;2022-08-24T08:42:31;101666.26;;;20.53;57.85
42361;BME280;54542;51.562;0.004;2022-08-24T08:45:11;101665.14;;;19.73;59.49
42361;BME280;54542;51.562;0.004;2022-08-24T08:48:03;101665.63;;;20.25;57.59
42361;BME280;54542;51.562;0.004;2022-08-24T08:50:51;101665.57;;;20.34;57.43
42361;BME280;54542;51.562;0.004;2022-08-24T08:53:42;101667.64;;;19.79;58.96
42361;BME280;54542;51.562;0.004;2022-08-24T08:56:24;101666.72;;;19.55;58.29
42361;BME280;54542;51.562;0.004;2022-08-24T08:59:00;101665.05;;;19.60;59.73
42361;BME280;54542;51.562;0.004;2022-08-24T09:01:34;101667.94;;;19.43;60.28
42361;BME280;54542;51.562;0.004;2022-08-24T09:04:18;101659.35;;;19.10;59.72
42361;BME280;54542;51.562;0.004;2022-08-24T09:07:03;101663.47;;;19.79;59.19
42361;BME280;54542;51.562;0.004;2022-08-24T09:10:20;101666.02;;;21.99;57.17
42361;BME280;54542;51.562;0.004;2022-08-24T09:13:06;101662.35;;;21.27;56.57
42361;BME280;54542;51.562;0.004;2022-08-24T09:15:56;101663.29;;;21.01;56.06
42361;BME280;54542;51.562;0.004;2022-08-24T09:18:39;101664.85;;;20.92;55.81
42361;BME280;54542;51.562;0.004;2022-08-24T09:21:29;101662.38;;;20.18;55.60
42361;BME280;54542;51.562;0.004;2022-08-24T09:24:15;101661.93;;;20.92;56.50
42361;BME280;54542;51.562;0.004;2022-08-24T09:26:58;101665.12;;;20.74;55.10
42361;BME280;54542;51.562;0.004;2022-08-24T09:29:41;101662.49;;;20.95;53.79
42361;BME280;54542;51.562;0.004;2022-08-24T09:32:33;101659.90;;;20.45;54.63
42361;BME280;54542;51.562;0.004;2022-08-24T09:35:05;101659.37;;;21.14;53.88
42361;BME280;54542;51.562;0.004;2022-08-24T09:37:49;101657.71;;;20.60;54.14
42361;BME280;54542;51.562;0.004;2022-08-24T09:40:34;101659.99;;;20.89;55.04
42361;BME280;54542;51.562;0.004;2022-08-24T09:43:28;101660.53;;;20.66;53.93
42361;BME280;54542;51.562;0.004;2022-08-24T09:47:08;101657.10;;;20.76;55.27
42361;BME280;54542;51.562;0.004;2022-08-24T09:50:18;101659.58;;;20.14;55.15
42361;BME280;54542;51.562;0.004;2022-08-24T09:55:55;101657.05;;;23.40;52.32
42361;BME280;54542;51.562;0.004;2022-08-24T09:58:36;101656.20;;;21.19;51.96
42361;BME280;54542;51.562;0.004;2022-08-24T10:01:17;101653.35;;;22.12;49.80
42361;BME280;54542;51.562;0.004;2022-08-24T10:04:00;101658.46;;;20.71;52.26
42361;BME280;54542;51.562;0.004;2022-08-24T10:06:37;101653.45;;;20.72;52.28
42361;BME280;54542;51.562;0.004;2022-08-24T10:10:02;101655.39;;;21.31;51.95
42361;BME280;54542;51.562;0.004;2022-08-24T10:12:49;101649.90;;;20.84;51.59
42361;BME280;54542;51.562;0.004;2022-08-24T10:15:26;101640.67;;;21.25;50.68
42361;BME280;54542;51.562;0.004;2022-08-24T10:18:09;101651.18;;;21.84;51.65
42361;BME280;54542;51.562;0.004;2022-08-24T10:20:53;101647.41;;;21.83;50.27
42361;BME280;54542;51.562;0.004;2022-08-24T10:23:37;101642.05;;;22.03;48.41
42361;BME280;54542;51.562;0.004;2022-08-24T10:26:16;101638.64;;;21.46;49.03
42361;BME280;54542;51.562;0.004;2022-08-24T10:28:58;101639.43;;;20.95;50.51
42361;BME280;54542;51.562;0.004;2022-08-24T10:31:35;101633.83;;;20.65;49.25
42361;BME280;54542;51.562;0.004;2022-08-24T10:34:21;101632.30;;;20.33;50.35
42361;BME280;54542;51.562;0.004;2022-08-24T10:37:11;101632.55;;;21.51;47.78
42361;BME280;54542;51.562;0.004;2022-08-24T10:40:02;101635.71;;;21.23;47.42
42361;BME280;54542;51.562;0.004;2022-08-24T10:42:43;101635.43;;;21.13;48.07
42361;BME280;54542;51.562;0.004;2022-08-24T10:45:26;101630.65;;;21.62;47.20
42361;BME280;54542;51.562;0.004;2022-08-24T10:48:13;101630.22;;;21.61;47.45
42361;BME280;54542;51.562;0.004;2022-08-24T10:50:53;101622.09;;;22.09;47.57
42361;BME280;54542;51.562;0.004;2022-08-24T10:53:26;101617.67;;;21.99;46.45
42361;BME280;54542;51.562;0.004;2022-08-24T10:56:06;101619.02;;;21.52;46.73
42361;BME280;54542;51.562;0.004;2022-08-24T10:58:50;101620.55;;;21.25;47.15
42361;BME280;54542;51.562;0.004;2022-08-24T11:01:23;101624.05;;;20.67;49.71
42361;BME280;54542;51.562;0.004;2022-08-24T11:03:56;101626.13;;;21.00;49.77
42361;BME280;54542;51.562;0.004;2022-08-24T11:06:26;101614.95;;;21.53;48.05
42361;BME280;54542;51.562;0.004;2022-08-24T11:08:57;101620.25;;;21.90;47.74
42361;BME280;54542;51.562;0.004;2022-08-24T11:11:28;101615.90;;;22.31;46.25
42361;BME280;54542;51.562;0.004;2022-08-24T11:14:00;101620.36;;;21.75;46.43
42361;BME280;54542;51.562;0.004;2022-08-24T11:16:33;101609.79;;;21.95;44.75
42361;BME280;54542;51.562;0.004;2022-08-24T11:19:04;101610.99;;;22.25;44.67
42361;BME280;54542;51.562;0.004;2022-08-24T11:21:38;101612.05;;;22.71;43.63
42361;BME280;54542;51.562;0.004;2022-08-24T11:24:11;101601.41;;;23.76;43.67
42361;BME280;54542;51.562;0.004;2022-08-24T11:26:58;101599.76;;;24.49;41.29
42361;BME280;54542;51.562;0.004;2022-08-24T11:29:32;101601.71;;;25.73;40.44
42361;BME280;54542;51.562;0.004;2022-08-24T11:32:26;101608.32;;;25.54;40.29
42361;BME280;54542;51.562;0.004;2022-08-24T11:35:00;101601.85;;;25.14;39.53
42361;BME280;54542;51.562;0.004;2022-08-24T11:37:32;101599.89;;;26.21;37.95
42361;BME280;54542;51.562;0.004;2022-08-24T11:40:02;101593.86;;;24.79;38.93
42361;BME280;54542;51.562;0.004;2022-08-24T11:42:42;101602.67;;;25.13;37.62
42361;BME280;54542;51.562;0.004;2022-08-24T11:45:18;101592.03;;;25.54;37.46
42361;BME280;54542;51.562;0.004;2022-08-24T11:48:02;101590.83;;;25.51;36.71
42361;BME280;54542;51.562;0.004;2022-08-24T11:50:40;101593.21;;;25.30;37.33
42361;BME280;54542;51.562;0.004;2022-08-24T11:53:18;101585.31;;;26.04;35.81
42361;BME280;54542;51.562;0.004;2022-08-24T11:55:58;101587.65;;;27.37;33.57
42361;BME280;54542;51.562;0.004;2022-08-24T11:58:39;101586.89;;;28.39;33.43
42361;BME280;54542;51.562;0.004;2022-08-24T12:01:15;101579.91;;;26.96;34.74
42361;BME280;54542;51.562;0.004;2022-08-24T12:03:55;101572.46;;;28.30;31.87
42361;BME280;54542;51.562;0.004;2022-08-24T12:06:32;101576.67;;;29.70;30.47
42361;BME280;54542;51.562;0.004;2022-08-24T12:09:10;101568.51;;;29.19;29.39
42361;BME280;54542;51.562;0.004;2022-08-24T12:11:47;101566.68;;;28.67;29.72
42361;BME280;54542;51.562;0.004;2022-08-24T12:14:21;101563.41;;;27.40;30.35
42361;BME280;54542;51.562;0.004;2022-08-24T12:16:56;101565.65;;;27.48;30.48
42361;BME280;54542;51.562;0.004;2022-08-24T12:19:30;101561.49;;;29.78;29.60
42361;BME280;54542;51.562;0.004;2022-08-24T12:22:01;101576.39;;;30.84;28.29
42361;BME280;54542;51.562;0.004;2022-08-24T12:24:33;101570.54;;;29.44;27.51
42361;BME280;54542;51.562;0.004;2022-08-24T12:27:06;101571.96;;;29.61;28.70
42361;BME280;54542;51.562;0.004;2022-08-24T12:29:39;101571.30;;;30.59;28.08
42361;BME280;54542;51.562;0.004;2022-08-24T12:32:15;101566.37;;;30.39;27.78
42361;BME280;54542;51.562;0.004;2022-08-24T12:34:52;101566.44;;;30.28;28.08
42361;BME280;54542;51.562;0.004;2022-08-24T12:37:27;101559.93;;;31.41;26.35
42361;BME280;54542;51.562;0.004;2022-08-24T12:40:04;101556.76;;;30.80;25.95
42361;BME280;54542;51.562;0.004;2022-08-24T12:42:38;101563.48;;;30.96;25.67
42361;BME280;54542;51.562;0.004;2022-08-24T12:45:11;101556.27;;;31.51;27.00
42361;BME280;54542;51.562;0.004;2022-08-24T12:47:45;101560.60;;;32.25;25.21
42361;BME280;54542;51.562;0.004;2022-08-24T12:50:21;101553.24;;;32.12;24.19
42361;BME280;54542;51.562;0.004;2022-08-24T12:53:45;101559.00;;;33.65;24.61
42361;BME280;54542;51.562;0.004;2022-08-24T12:56:28;101555.62;;;30.77;25.33
42361;BME280;54542;51.562;0.004;2022-08-24T12:59:03;101560.21;;;31.97;23.99
42361;BME280;54542;51.562;0.004;2022-08-24T13:01:38;101553.93;;;32.79;24.98
42361;BME280;54542;51.562;0.004;2022-08-24T13:04:13;101554.39;;;34.38;23.99
42361;BME280;54542;51.562;0.004;2022-08-24T13:06:46;101561.38;;;33.34;22.53
42361;BME280;54542;51.562;0.004;2022-08-24T13:09:27;101555.31;;;34.33;22.91
42361;BME280;54542;51.562;0.004;2022-08-24T13:11:58;101551.64;;;33.60;22.85
42361;BME280;54542;51.562;0.004;2022-08-24T13:14:28;101546.84;;;34.36;22.21
42361;BME280;54542;51.562;0.004;2022-08-24T13:17:12;101546.28;;;32.30;23.14
42361;BME280;54542;51.562;0.004;2022-08-24T13:19:45;101534.22;;;32.69;23.00
42361;BME280;54542;51.562;0.004;2022-08-24T13:23:03;101540.59;;;34.42;22.52